Sanford, NC

5:13 PM EST on February 27, 2015 (GMT -0500)
Reserve at Carthage Colonies | Change Station
CLOSE
Current Station
Personal Weather Station
Location: Sanford, NC
Elevation: 404 ft
Nearby Weather Stations

Elev 404 ft 35.45 °N, 79.20 °W | Updated 2 minutes ago

Clear
Clear
45.7 °F
Feels Like 42 °F
N
7.3
Wind Variable Wind from West

Today
High -- | Low -- °F
--% Chance of Precip.
Yesterday
High -- | Low -- °F
Precip. -- in
6:49 AM 6:10 PM
Waxing Gibbous, 72% visible
Pressure 30.40 in
Visibility 10.0 miles
Clouds Clear
Windchill 42 °F
Dew Point 28 °F
Humidity 49%
Rainfall 0.02 in
Snow Depth Not available.
UV 1 out of 12
Pollen 4.50 out of 12
Air Quality Not available.
Flu Activity Not available.
METAR KTTA 272155Z AUTO 33004KT 10SM CLR 08/M04 A3040 RMK AO2 T00771037

More Conditions Fewer Conditions

Pressure 30.40 in
Visibility 10.0 miles
Clouds Clear
Windchill 42 °F
Dew Point 28 °F
Humidity 49%
Rainfall 0.02 in
Snow Depth Not available.
UV 1 out of 12
Pollen 4.50 out of 12
Air Quality Not available.
Flu Activity Not available.
METAR KTTA 272155Z AUTO 33004KT 10SM CLR 08/M04 A3040 RMK AO2 T00771037

More Conditions Fewer Conditions

10-Day Weather Forecast

Almanac

Astronomy

Feb. 27, 2015 Rise Set
Actual Time
Civil Twilight
Nautical Twilight
Astronomical Twilight
Moon
Length of Visible Light
Length of Day
Tomorrow will be .
, % of the Moon is Illuminated

Today's Extremes

State Highs State Lows

Community

WunderPhotos

Upload Photos

1,800,845 photos uploaded!

WunderBlogs® & News

Nearby

Air Quality

  Air Quality AQ Index Pollutant
Not available.

Snow Depth

Station Depth Elevation

Earthquake Activity

City Distance Mag. Time & Date
Minimum magnitude displayed is 2.5.

Coastal Water Temperatures

Place Temperature

Nearby Weather Stations